Witch Creek (222) Station Data

Red Flag Warning: No
Fire Weather Zone: 250
SDGE Region: Ramona
Lat/Lon: 33.073/-116.738

Observations

Time Wind Speed/Gust Temp(F) RH Fuel Moist Fuel Temp(F) Dewpt(F) Tmax(F) Tmin(F) Accum Precip 10-min Precip SL Press(mb)
4/26 2:50am 96 1 G 2 46° 83% - - 41° 48.4° 45.1° - - 1014.0
4/26 2:40am 48 1 G 2 47° 83% - - 42° 48.4° 45.1° - - 1014.0
4/26 2:30am 76 1 G 2 47° 84% - - 42° 48.4° 45.1° - - 1014.0
4/26 2:20am 328 1 G 2 46° 86% - - 42° 48.4° 45.1° - - 1014.0
4/26 2:10am 56 2 G 5 46° 83% - - 41° 48.4° 45.1° - - 1014.0
4/26 2:00am 153 2 G 4 47° 84% - - 42° 48.4° 45.6° - - 1014.0
4/26 1:50am 27 2 G 3 47° 82% - - 42° 48.4° 45.6° - - 1014.0
4/26 1:40am 20 2 G 4 48° 85% - - 43° 48.4° 45.6° - - 1014.0
4/26 1:30am 68 2 G 3 46° 86% - - 42° 48.4° 45.6° - - 1015.0
4/26 1:20am 341 2 G 3 48° 84% - - 43° 48.4° 46.1° - - 1015.0
4/26 1:10am 119 1 G 3 48° 88% - - 44° 48.3° 46.1° - - 1015.0
4/26 1:00am 88 2 G 3 47° 93% - - 45° 47.4° 45.2° - - -
4/26 12:50am 42 1 G 2 48° 88% - - 44° 48.3° 46.6° - - 1015.0
4/26 12:40am 91 0 G 2 48° 88% - - 44° 48.3° 46.6° - - 1015.0
4/26 12:30am 27 3 G 4 48° 89% - - 45° 48.3° 46.6° - - 1015.0
4/26 12:20am 55 2 G 4 48° 91% - - 45° 48.3° 46.6° - - 1015.0
4/26 12:10am 41 1 G 2 47° 88% - - 44° 47.5° 46.6° - - 1015.0
4/26 12:00am 41 1 G 2 49° 88% - - 45° 61.5° 46.7° - - 1015.0
4/25 11:50pm 119 1 G 2 48° 89% - - 45° 61.5° 46.7° - - 1015.0
4/25 11:40pm 343 1 G 4 48° 89% - - 45° 61.5° 46.7° - - 1015.0
4/25 11:30pm 355 1 G 4 48° 89% - - 45° 61.5° 46.7° - - 1015.0
4/25 11:20pm 334 1 G 3 48° 89% - - 45° 61.5° 46.7° - - 1015.0
4/25 11:10pm 229 1 G 2 48° 89% - - 45° 61.5° 46.7° - - 1015.0
4/25 11:00pm 66 2 G 4 48° 90% - - 45° 61.5° 46.7° - - 1016.0
4/25 10:50pm 14 3 G 4 48° 90% - - 45° 61.5° 46.7° - - 1016.0
4/25 10:40pm 9 3 G 4 48° 88% - - 44° 61.5° 46.7° - - 1016.0
4/25 10:30pm 82 1 G 2 48° 89% - - 45° 61.5° 47° - - 1016.0
4/25 10:20pm 101 1 G 2 48° 88% - - 45° 61.5° 47° - - 1016.0
4/25 10:10pm 14 2 G 3 48° 88% - - 45° 61.5° 47° - - 1016.0
4/25 10:00pm 36 2 G 3 48° 88% - - 45° 61.5° 47° - - 1016.0
4/25 9:50pm 50 2 G 2 48° 88% - - 45° 61.5° 47° - - 1016.0
4/25 9:40pm 54 1 G 2 48° 86% - - 44° 61.5° 47° - - 1016.0
4/25 9:30pm 109 1 G 2 48° 86% - - 44° 61.5° 47.6° - - 1016.0
4/25 9:20pm 272 1 G 2 48° 85% - - 44° 61.5° 47.7° - - 1015.0
4/25 9:10pm 193 1 G 2 49° 85% - - 45° 61.5° 48.4° - - 1015.0
4/25 9:00pm 66 1 G 2 49° 84% - - 44° 61.5° 48.4° - - 1015.0
4/25 8:50pm 22 1 G 2 50° 81% - - 44° 61.5° 48.5° - - 1015.0
4/25 8:40pm 99 3 G 3 50° 84% - - 46° 61.5° 48.5° - - 1015.0
4/25 8:30pm 23 1 G 3 50° 82% - - 45° 61.5° 48.5° - - 1015.0
4/25 8:20pm 139 1 G 2 51° 81% - - 46° 61.5° 48.5° - - 1014.0
4/25 8:10pm 86 1 G 2 51° 81% - - 46° 61.5° 48.5° - - 1014.0
4/25 8:00pm 58 1 G 2 52° 79% - - 45° 61.5° 48.5° - - 1014.0
4/25 7:50pm 206 0 G 2 53° 77% - - 46° 61.5° 48.5° - - 1013.0
4/25 7:40pm 188 1 G 3 53° 76% - - 46° 61.5° 48.5° - - 1013.0
4/25 7:30pm 249 2 G 4 54° 75% - - 46° 61.5° 48.5° - - 1013.0
4/25 7:20pm 288 4 G 7 55° 74% - - 46° 61.5° 48.5° - - 1013.0
4/25 7:10pm 285 6 G 8 55° 72% - - 46° 61.5° 48.5° - - 1013.0
4/25 7:00pm 274 5 G 8 56° 71% - - 47° 61.5° 48.5° - - 1013.0
4/25 6:50pm 251 6 G 10 56° 70% - - 47° 61.5° 48.5° - - 1013.0
4/25 6:40pm 263 7 G 11 57° 69% - - 46° 61.5° 48.5° - - 1012.0
4/25 6:30pm 276 7 G 10 57° 68% - - 46° 61.5° 48.5° - - 1012.0
4/25 6:20pm 278 7 G 12 57° 67% - - 47° 61.5° 48.5° - - 1012.0
4/25 6:10pm 267 8 G 11 58° 67% - - 47° 61.5° 48.5° - - 1012.0
4/25 6:00pm 277 5 G 8 58° 66% - - 47° 61.5° 48.5° - - 1012.0
4/25 5:50pm 284 6 G 10 59° 66% - - 47° 61.5° 48.5° - - 1012.0
4/25 5:40pm 279 7 G 12 59° 65% - - 47° 61.5° 48.5° - - 1012.0
4/25 5:30pm 272 8 G 12 59° 64% - - 47° 61.5° 48.5° - - 1012.0
4/25 5:20pm 265 8 G 12 59° 64% - - 47° 61.5° 48.5° - - 1012.0
4/25 5:10pm 261 8 G 12 59° 63% - - 47° 61.5° 48.5° - - 1012.0
4/25 5:00pm 267 8 G 13 60° 61% - - 46° 61.5° 48.5° - - 1012.0
4/25 4:50pm 275 6 G 9 60° 60% - - 46° 61.5° 48.5° - - 1012.0
4/25 4:40pm 279 6 G 9 60° 60% - - 46° 61.5° 48.5° - - 1012.0
4/25 4:30pm 266 6 G 10 60° 61% - - 46° 61.5° 48.5° - - 1012.0
4/25 4:20pm 255 8 G 12 60° 60% - - 46° 61.5° 48.5° - - 1011.0
4/25 4:10pm 256 7 G 12 60° 60% - - 46° 61.5° 48.5° - - 1012.0
4/25 4:00pm 274 7 G 11 60° 61% - - 47° 61.5° 48.5° - - 1012.0
4/25 3:50pm 277 8 G 12 60° 63% - - 47° 61.5° 48.5° - - 1012.0
4/25 3:40pm 283 9 G 15 59° 64% - - 47° 61.5° 48.5° - - 1012.0
4/25 3:30pm 277 9 G 14 60° 62% - - 47° 61.5° 48.5° - - 1012.0
4/25 3:20pm 284 9 G 13 60° 62% - - 47° 61.4° 48.5° - - 1012.0
4/25 3:10pm 261 9 G 14 60° 62% - - 47° 61.4° 48.5° - - 1012.0
4/25 3:00pm 241 9 G 14 60° 60% - - 46° 61.4° 48.5° - - 1011.0
4/25 2:50pm 226 9 G 14 60° 60% - - 46° 61.4° 48.5° - - 1011.0
4/25 2:40pm 239 10 G 14 60° 60% - - 46° 61.4° 48.5° - - 1012.0
4/25 2:30pm 242 10 G 14 60° 60% - - 46° 61.4° 48.5° - - 1012.0
4/25 2:20pm 238 8 G 13 61° 58% - - 46° 61.4° 48.5° - - 1012.0
4/25 2:10pm 249 8 G 19 60° 60% - - 46° 61.4° 48.5° - - 1012.0
4/25 2:00pm 257 10 G 17 60° 61% - - 46° 61.4° 48.5° - - 1013.0
4/25 1:50pm 252 11 G 17 60° 57% - - 45° 61.4° 48.5° - - 1012.0
4/25 1:40pm 252 7 G 14 60° 55% - - 44° 61.4° 48.5° - - 1013.0
4/25 1:30pm 261 9 G 15 60° 54% - - 43° 61.4° 48.5° - - 1013.0
4/25 1:20pm 262 8 G 13 61° 53% - - 43° 61.4° 48.5° - - 1013.0
4/25 1:10pm 245 8 G 16 59° 56% - - 44° 60.7° 48.5° - - 1013.0
4/25 1:00pm 259 7 G 12 59° 58% - - 44° 59.9° 48.5° - - 1013.0
4/25 12:50pm 251 10 G 17 59° 57% - - 44° 59.9° 48.5° - - 1013.0
4/25 12:40pm 268 9 G 14 59° 56% - - 43° 59.9° 48.5° - - 1013.0
4/25 12:30pm 263 9 G 15 59° 55% - - 43° 59.9° 48.5° - - 1013.0
4/25 12:20pm 270 10 G 17 58° 56% - - 43° 59.5° 48.5° - - 1013.0
4/25 12:10pm 255 8 G 15 59° 55% - - 42° 59.5° 48.5° - - 1013.0
4/25 12:00pm 266 9 G 14 59° 56% - - 43° 59.3° 48.5° - - 1013.0
4/25 11:50am 266 7 G 15 59° 57% - - 44° 59.3° 48.5° - - 1013.0
4/25 11:40am 250 7 G 11 58° 59% - - 43° 58.5° 48.5° - - 1013.0
4/25 11:30am 239 7 G 10 57° 62% - - 44° 57.6° 48.5° - - 1013.0
4/25 11:20am 230 7 G 11 56° 64% - - 44° 57.6° 48.5° - - 1014.0
4/25 11:10am 248 7 G 13 57° 64% - - 44° 57.6° 48.5° - - 1014.0
4/25 11:00am 265 7 G 12 56° 62% - - 44° 57.4° 48.5° - - 1014.0
4/25 10:50am 270 7 G 11 56° 64% - - 44° 57.4° 48.5° - - 1014.0
4/25 10:40am 233 8 G 11 56° 66% - - 45° 57.4° 48.5° - - 1014.0
4/25 10:30am 225 7 G 11 56° 69% - - 46° 57.4° 48.5° - - 1014.0
4/25 10:20am 238 8 G 13 56° 67% - - 45° 57.1° 48.5° - - 1014.0
4/25 10:10am 229 5 G 12 56° 67% - - 45° 57° 48.5° - - 1014.0
4/25 10:00am 250 6 G 11 54° 71% - - 45° 56.4° 48.5° - - 1014.0
4/25 9:50am 238 7 G 12 54° 74% - - 45° 56.4° 48.5° - - 1014.0
4/25 9:40am 214 5 G 12 55° 70% - - 46° 56.4° 48.5° - - 1013.0
4/25 9:30am 207 6 G 11 53° 80% - - 47° 54.8° 48.5° - - 1014.0
4/25 9:20am 211 9 G 12 53° 82% - - 47° 53.6° 48.5° - - 1014.0
4/25 9:10am 215 8 G 12 53° 83% - - 48° 53.6° 48.5° - - 1014.0
4/25 9:00am 226 8 G 12 52° 86% - - 48° 52.9° 48.5° - - 1014.0
4/25 8:50am 232 8 G 11 52° 89% - - 48° 51.9° 48.5° - - 1014.0
4/25 8:40am 236 8 G 12 51° 89% - - 48° 51.4° 48.5° - - 1014.0
4/25 8:30am 219 8 G 11 51° 92% - - 49° 51.4° 48.5° - - 1014.0
4/25 8:20am 223 7 G 12 51° 94% - - 49° 50.9° 48.5° - - 1014.0
4/25 8:10am 228 6 G 10 50° 95% - - 49° 50.7° 48.5° - - 1014.0
4/25 8:00am 227 6 G 10 50° 96% - - 49° 50.4° 48.5° - - 1014.0
4/25 7:50am 228 6 G 9 50° 97% - - 49° 50.4° 48.5° - - 1014.0
4/25 7:40am 225 6 G 9 50° 97% - - 49° 50.4° 48.5° - - 1013.0
4/25 7:30am 225 6 G 9 50° 97% - - 49° 50.4° 48.5° - - 1013.0
4/25 7:20am 227 6 G 9 49° 97% - - 49° 50.4° 48.5° - - 1013.0
4/25 7:10am 228 6 G 10 49° 97% - - 48° 50.4° 48.5° - - 1013.0
4/25 7:00am 230 6 G 9 49° 97% - - 48° 50.4° 48.5° - - 1013.0
4/25 6:50am 225 6 G 10 49° 97% - - 48° 50.4° 48.5° - - 1013.0
4/25 6:40am 234 6 G 9 49° 97% - - 48° 50.4° 48.5° - - 1013.0
4/25 6:30am 222 7 G 11 49° 97% - - 48° 50.4° 48.5° - - 1013.0
4/25 6:20am 228 7 G 11 49° 97% - - 48° 50.4° 48.7° - - 1013.0
4/25 6:10am 235 6 G 8 49° 96% - - 48° 50.4° 48.7° - - 1013.0
4/25 6:00am 236 5 G 8 49° 96% - - 48° 50.4° 48.7° - - 1013.0
4/25 5:50am 230 5 G 7 49° 96% - - 48° 50.4° 48.7° - - 1013.0
4/25 5:40am 245 5 G 9 49° 96% - - 48° 50.4° 48.7° - - 1012.0
4/25 5:30am 228 5 G 8 49° 96% - - 48° 50.4° 48.7° - - 1012.0
4/25 5:20am 231 4 G 7 49° 96% - - 48° 50.4° 48.7° - - 1013.0
4/25 5:10am 237 6 G 8 49° 96% - - 48° 50.4° 48.7° - - 1012.0
4/25 5:00am 226 4 G 7 49° 96% - - 48° 50.4° 48.7° - - 1012.0
4/25 4:50am 224 4 G 7 49° 96% - - 48° 50.4° 48.7° - - 1012.0
4/25 4:40am 241 5 G 7 49° 96% - - 48° 50.4° 48.7° - - 1012.0
4/25 4:30am 217 6 G 10 49° 97% - - 48° 50.4° 48.7° - - 1012.0
4/25 4:20am 206 5 G 8 49° 97% - - 48° 50.4° 48.7° - - 1012.0
4/25 4:10am 234 6 G 10 49° 97% - - 48° 50.4° 48.8° - - 1012.0
4/25 4:00am 241 7 G 12 49° 97% - - 48° 50.4° 48.8° - - 1012.0
4/25 3:50am 217 7 G 12 49° 97% - - 48° 50.4° 48.8° - - 1012.0
4/25 3:40am 220 8 G 13 49° 97% - - 48° 50.4° 48.8° - - 1012.0
4/25 3:30am 217 8 G 14 49° 97% - - 48° 50.4° 48.8° - - 1012.0
4/25 3:20am 229 8 G 12 49° 97% - - 48° 50.4° 48.8° - - 1013.0
4/25 3:10am 228 8 G 15 49° 97% - - 48° 50.4° 48.8° - - 1013.0
4/25 3:00am 230 8 G 13 49° 96% - - 48° 50.4° 48.8° - - 1013.0
4/25 2:50am 224 6 G 10 49° 95% - - 48° 50.4° 48.8° - - 1013.0
4/25 2:40am 225 7 G 10 50° 95% - - 48° 50.4° 48.8° - - 1013.0
4/25 2:30am 223 6 G 9 49° 94% - - 48° 50.4° 48.8° - - 1013.0
4/25 2:20am 218 7 G 10 50° 93% - - 48° 50.4° 48.8° - - 1013.0
4/25 2:10am 225 7 G 12 50° 92% - - 47° 50.4° 48.8° - - 1013.0
4/25 2:00am 228 6 G 9 50° 92% - - 47° 50.4° 48.8° - - 1013.0
4/25 1:50am 226 8 G 11 49° 93% - - 48° 50.4° 48.8° - - 1013.0
4/25 1:40am 229 7 G 12 49° 95% - - 48° 50.4° 48.8° - - 1013.0
4/25 1:30am 232 7 G 13 49° 96% - - 48° 50.4° 48.8° - - 1013.0
4/25 1:20am 227 8 G 12 49° 95% - - 48° 50.4° 49° - - 1013.0
4/25 1:10am 210 6 G 10 50° 95% - - 48° 50.4° 49.3° - - 1013.0
4/25 1:00am 228 7 G 11 50° 93% - - 48° 50.4° 49.4° - - 1013.0
4/25 12:50am 225 7 G 11 50° 90% - - 47° 50.4° 49.5° - - 1013.0
4/25 12:40am 205 6 G 10 50° 89% - - 47° 50.4° 49.5° - - 1013.0
4/25 12:30am 213 5 G 8 50° 89% - - 47° 50.4° 49.5° - - 1013.0
4/25 12:20am 221 7 G 10 50° 89% - - 47° 50.2° 49.5° - - 1013.0
4/25 12:10am 211 7 G 13 50° 91% - - 47° 50.1° 49.5° - - 1013.0
4/25 12:00am 193 9 G 14 50° 93% - - 48° 64.2° 40.9° - - 1012.0
4/24 11:50pm 209 8 G 13 50° 94% - - 48° 64.2° 40.9° - - 1013.0
4/24 11:40pm 223 7 G 12 50° 95% - - 48° 64.2° 40.9° - - 1014.0
4/24 11:30pm 248 8 G 12 50° 95% - - 49° 64.2° 40.9° - - 1014.0
4/24 11:20pm 248 8 G 12 50° 95% - - 49° 64.2° 40.9° - - 1014.0
4/24 11:10pm 256 8 G 12 50° 94% - - 49° 64.2° 40.9° - - 1014.0
4/24 11:00pm 246 8 G 12 50° 94% - - 49° 64.2° 40.9° - - 1014.0
4/24 10:50pm 244 8 G 12 50° 94% - - 49° 64.2° 40.9° - - 1013.0
4/24 10:40pm 239 8 G 12 51° 94% - - 49° 64.2° 40.9° - - 1013.0
4/24 10:30pm 243 7 G 11 51° 93% - - 49° 64.2° 40.9° - - 1013.0
4/24 10:20pm 239 7 G 10 51° 93% - - 49° 64.2° 40.9° - - 1013.0
4/24 10:10pm 231 6 G 9 51° 93% - - 49° 64.2° 40.9° - - 1013.0
4/24 10:00pm 232 6 G 9 51° 91% - - 49° 64.2° 40.9° - - 1013.0
4/24 9:50pm 232 6 G 9 51° 91% - - 49° 64.2° 40.9° - - 1013.0
4/24 9:40pm 233 5 G 7 51° 90% - - 49° 64.2° 40.9° - - 1013.0
4/24 9:30pm 236 5 G 8 51° 90% - - 49° 64.2° 40.9° - - 1014.0
4/24 9:20pm 233 5 G 9 51° 90% - - 49° 64.2° 40.9° - - 1014.0
4/24 9:10pm 221 6 G 9 51° 90% - - 49° 64.2° 40.9° - - 1014.0
4/24 9:00pm 219 6 G 8 52° 90% - - 49° 64.2° 40.9° - - 1014.0
4/24 8:50pm 222 6 G 9 52° 90% - - 49° 64.2° 40.9° - - 1014.0
4/24 8:40pm 233 6 G 10 52° 91% - - 50° 64.2° 40.9° - - 1013.0
4/24 8:30pm 240 7 G 10 52° 90% - - 49° 64.2° 40.9° - - 1013.0
4/24 8:20pm 231 5 G 8 52° 89% - - 49° 64.2° 40.9° - - 1013.0
4/24 8:10pm 228 5 G 8 53° 87% - - 49° 64.2° 40.9° - - 1013.0
4/24 8:00pm 223 6 G 11 53° 86% - - 49° 64.2° 40.9° - - 1013.0
4/24 7:50pm 229 6 G 10 53° 85% - - 49° 64.2° 40.9° - - 1013.0
4/24 7:40pm 235 8 G 11 54° 84% - - 49° 64.2° 40.9° - - 1013.0
4/24 7:30pm 233 8 G 12 54° 84% - - 49° 64.2° 40.9° - - 1013.0
4/24 7:20pm 227 8 G 12 54° 82% - - 49° 64.2° 40.9° - - 1013.0
4/24 7:10pm 228 8 G 11 54° 82% - - 49° 64.2° 40.9° - - 1013.0
4/24 7:00pm 235 9 G 13 55° 81% - - 49° 64.2° 40.9° - - 1013.0
4/24 6:50pm 238 9 G 13 55° 80% - - 49° 64.2° 40.9° - - 1013.0
4/24 6:40pm 235 9 G 13 55° 78% - - 49° 64.2° 40.9° - - 1013.0
4/24 6:30pm 235 10 G 15 56° 78% - - 49° 64.2° 40.9° - - 1013.0
4/24 6:20pm 241 9 G 13 56° 75% - - 48° 64.2° 40.9° - - 1012.0
4/24 6:10pm 234 9 G 14 57° 73% - - 48° 64.2° 40.9° - - 1012.0
4/24 6:00pm 238 9 G 14 57° 72% - - 48° 64.2° 40.9° - - 1012.0